Howe, Illinois
Current Conditions -  °F | °C
As of 2:35 AM on Thursday 27 Nov 2014 (Local Time) from KVYS Reporting Station
Haze Haze  
Wind Chill: 11°   Ceiling: 8500
Heat Index: 22°   Visibility: 4mi
Dew Point: 19°   Wind: 10mph
Humidity: 89%   Direction: 310°NW
Pressure: 30.29"   Gusts: NA
Location:  41.3278°N, 89.2998°W
Report Text: KVYS 270835Z AUTO 31009KT 4SM BR BKN085 OVC095 M06/M07 A3029 RMK AO2 T10561071
Loading
Personal Weather Stations






























Interactive Weather Map New forecast layout! Learn more

10-Day Weather Forecast

Advertisements
Track Severe Weather on mobile